Time;durP1;ratioP1;P1;durP2;ratioP2;P2;SDS_P1;SDS_P2;PMS_P1;PMS_P2;Temp;Humidity;BMP_temperature;BMP_pressure;BME280_temperature;BME280_humidity;BME280_pressure;Samples;Min_cycle;Max_cycle;Signal;HPM_P1;HPM_P2
2022/07/21 00:02:11;;;;;;;17.30;15.80;;;23.30;99.90;;;;;;5073158;28;20191;-69
2022/07/21 00:04:37;;;;;;;18.23;16.57;;;23.30;99.90;;;;;;5075443;28;20210;-69
2022/07/21 00:07:03;;;;;;;16.97;15.57;;;23.40;99.90;;;;;;5074574;28;20230;-70
2022/07/21 00:09:29;;;;;;;16.37;15.10;;;23.30;99.90;;;;;;5068686;28;20181;-69
2022/07/21 00:11:54;;;;;;;16.37;14.93;;;23.40;99.90;;;;;;5075296;28;20172;-69
2022/07/21 00:14:20;;;;;;;16.70;15.40;;;23.40;99.90;;;;;;5058083;28;20284;-69
2022/07/21 00:16:46;;;;;;;16.00;14.60;;;23.40;99.90;;;;;;5055505;28;20223;-69
2022/07/21 00:19:12;;;;;;;16.33;14.83;;;23.40;99.90;;;;;;5054005;28;20633;-69
2022/07/21 00:21:38;;;;;;;16.17;14.77;;;23.40;99.90;;;;;;5055185;28;20242;-69
2022/07/21 00:24:03;;;;;;;15.60;14.30;;;23.50;99.90;;;;;;5054355;28;20185;-69
2022/07/21 00:26:29;;;;;;;15.63;14.27;;;23.40;99.90;;;;;;5055010;28;20691;-69
2022/07/21 00:28:55;;;;;;;15.07;13.97;;;23.40;99.90;;;;;;5053858;28;20208;-69
2022/07/21 00:31:20;;;;;;;14.93;13.67;;;23.40;99.90;;;;;;5053083;28;20366;-69
2022/07/21 00:33:46;;;;;;;14.23;13.13;;;23.30;99.90;;;;;;5053621;28;20192;-69
2022/07/21 00:36:12;;;;;;;14.33;13.10;;;23.30;99.90;;;;;;5053857;28;20173;-69
2022/07/21 00:38:38;;;;;;;14.13;12.70;;;23.30;99.90;;;;;;5036101;28;20472;-69
2022/07/21 00:41:04;;;;;;;12.93;11.83;;;23.30;99.90;;;;;;5054263;28;20173;-69
2022/07/21 00:43:29;;;;;;;14.33;13.03;;;23.20;99.90;;;;;;5053014;28;20182;-69
2022/07/21 00:45:55;;;;;;;12.97;11.97;;;23.20;99.90;;;;;;5052111;28;20443;-69
2022/07/21 00:48:21;;;;;;;13.93;12.60;;;23.20;99.90;;;;;;5051830;28;20186;-70
2022/07/21 00:50:48;;;;;;;14.30;12.90;;;23.20;99.90;;;;;;5054182;28;20490;-69
2022/07/21 00:53:13;;;;;;;13.50;12.40;;;23.20;99.90;;;;;;5054095;28;20903;-69
2022/07/21 00:55:42;;;;;;;12.90;11.80;;;23.20;99.90;;;;;;5053386;28;20464;-69
2022/07/21 00:58:08;;;;;;;12.77;11.67;;;23.20;99.90;;;;;;5053688;28;20185;-70
2022/07/21 01:00:34;;;;;;;12.70;11.40;;;23.20;99.90;;;;;;5054355;28;20400;-69
2022/07/21 01:03:00;;;;;;;12.07;11.03;;;23.20;99.90;;;;;;5054583;28;20500;-69
2022/07/21 01:05:26;;;;;;;12.80;11.70;;;23.20;99.90;;;;;;5053550;28;20412;-70
2022/07/21 01:07:54;;;;;;;12.97;11.87;;;23.20;99.90;;;;;;5036373;28;20455;-69
2022/07/21 01:10:23;;;;;;;13.30;12.30;;;23.10;99.90;;;;;;5052361;28;20178;-69
2022/07/21 01:12:49;;;;;;;13.70;12.50;;;23.10;99.90;;;;;;5052987;28;20504;-70
2022/07/21 01:15:16;;;;;;;13.70;12.50;;;23.10;99.90;;;;;;5053315;28;20551;-69
2022/07/21 01:17:43;;;;;;;12.43;11.53;;;23.10;99.90;;;;;;5035974;28;20408;-69
2022/07/21 01:20:15;;;;;;;13.60;12.40;;;23.10;99.90;;;;;;5034405;28;20451;-70
2022/07/21 01:22:43;;;;;;;12.77;11.67;;;23.10;99.90;;;;;;5068227;28;20437;-69
2022/07/21 01:25:09;;;;;;;13.00;11.73;;;23.10;99.90;;;;;;5073104;28;20796;-69
2022/07/21 01:27:35;;;;;;;11.13;10.30;;;23.00;99.90;;;;;;5071343;28;20435;-69
2022/07/21 01:30:03;;;;;;;13.00;11.80;;;23.00;99.90;;;;;;5073586;28;20412;-69
2022/07/21 01:32:29;;;;;;;11.93;11.00;;;23.00;99.90;;;;;;5071846;28;20180;-69
2022/07/21 01:34:54;;;;;;;10.60;9.70;;;23.00;99.90;;;;;;5073385;28;20454;-69
2022/07/21 01:37:27;;;;;;;11.27;10.37;;;23.00;99.90;;;;;;5072951;28;20169;-69
2022/07/21 01:42:37;;;;;;;11.67;10.77;;;22.90;99.90;;;;;;5073717;28;20422;-69
2022/07/21 01:45:04;;;;;;;11.87;10.87;;;22.90;99.90;;;;;;5070954;28;20450;-69
2022/07/21 01:47:29;;;;;;;12.77;11.80;;;22.80;99.90;;;;;;5072824;28;20443;-69
2022/07/21 01:49:55;;;;;;;12.73;11.63;;;22.80;99.90;;;;;;5073119;28;20564;-69
2022/07/21 01:52:21;;;;;;;12.50;11.40;;;22.80;99.90;;;;;;5072555;28;20185;-69
2022/07/21 01:54:47;;;;;;;11.93;10.93;;;22.80;99.90;;;;;;5055094;28;20212;-69
2022/07/21 01:57:12;;;;;;;12.43;11.33;;;22.70;99.90;;;;;;5054668;28;20189;-69
2022/07/21 01:59:38;;;;;;;11.70;10.50;;;22.70;99.90;;;;;;5073262;28;20177;-69
2022/07/21 02:02:04;;;;;;;11.77;10.87;;;22.70;99.90;;;;;;5072477;28;20169;-69
2022/07/21 02:04:30;;;;;;;11.43;10.60;;;22.70;99.90;;;;;;5072273;28;20181;-69
2022/07/21 02:06:55;;;;;;;12.10;11.00;;;22.70;99.90;;;;;;5072833;28;20179;-69
2022/07/21 02:09:21;;;;;;;12.63;11.63;;;22.60;99.90;;;;;;5066705;28;20177;-69
2022/07/21 02:11:47;;;;;;;12.33;11.43;;;22.60;99.90;;;;;;5073032;28;20179;-69
2022/07/21 02:14:13;;;;;;;12.60;11.60;;;22.60;99.90;;;;;;5072383;28;20254;-69
2022/07/21 02:16:38;;;;;;;12.43;11.30;;;22.50;99.90;;;;;;5071292;28;20183;-69
2022/07/21 02:19:04;;;;;;;11.57;10.77;;;22.50;99.90;;;;;;5072747;28;20263;-69
2022/07/21 02:21:30;;;;;;;11.63;10.63;;;22.50;99.90;;;;;;5070698;28;20224;-69
2022/07/21 02:23:55;;;;;;;12.33;11.37;;;22.60;99.90;;;;;;5032860;28;20209;-69
2022/07/21 02:26:21;;;;;;;11.77;10.80;;;22.50;99.90;;;;;;5032380;28;20186;-69
2022/07/21 02:28:47;;;;;;;9.77;8.87;;;22.50;99.90;;;;;;5042260;28;20190;-69
2022/07/21 02:31:13;;;;;;;9.70;8.70;;;22.40;99.90;;;;;;5072168;28;20177;-69
2022/07/21 02:33:39;;;;;;;8.83;8.20;;;22.30;99.90;;;;;;5070020;28;20185;-69
2022/07/21 02:36:05;;;;;;;8.40;7.80;;;22.30;99.90;;;;;;5054337;28;20574;-69
2022/07/21 02:38:31;;;;;;;9.17;8.47;;;22.20;99.90;;;;;;5064040;28;20589;-69
2022/07/21 02:40:56;;;;;;;9.83;9.03;;;22.20;99.90;;;;;;5052529;28;20466;-69
2022/07/21 02:43:22;;;;;;;8.70;8.00;;;22.20;99.90;;;;;;5051712;28;20181;-69
2022/07/21 02:45:48;;;;;;;10.23;9.47;;;22.20;99.90;;;;;;5052267;28;20190;-69
2022/07/21 02:48:14;;;;;;;9.83;8.93;;;22.20;99.90;;;;;;5051281;28;20231;-69
2022/07/21 02:50:42;;;;;;;9.80;9.10;;;22.10;99.90;;;;;;5054501;28;20526;-69
2022/07/21 02:53:17;;;;;;;10.03;9.23;;;22.20;99.90;;;;;;5072313;28;20413;-69
2022/07/21 02:55:44;;;;;;;9.63;8.93;;;22.20;99.90;;;;;;5011047;28;20552;-69
2022/07/21 02:58:25;;;;;;;10.40;9.50;;;22.20;99.90;;;;;;5036592;28;21031;-69
2022/07/21 03:00:53;;;;;;;10.67;9.87;;;22.20;99.90;;;;;;5064917;28;20473;-69
2022/07/21 03:03:20;;;;;;;10.30;9.50;;;22.20;99.90;;;;;;5033723;28;20425;-69
2022/07/21 03:05:49;;;;;;;11.60;10.60;;;22.20;99.90;;;;;;5051797;28;20428;-69
2022/07/21 03:08:16;;;;;;;11.17;10.10;;;22.20;99.90;;;;;;4969242;28;20435;-71
2022/07/21 03:10:42;;;;;;;11.53;10.53;;;22.20;99.90;;;;;;4963500;28;20435;-72
2022/07/21 03:13:09;;;;;;;9.70;8.80;;;22.30;99.90;;;;;;4978863;28;20904;-71
2022/07/21 03:15:35;;;;;;;11.17;10.17;;;22.20;99.90;;;;;;4953687;28;20505;-71
2022/07/21 03:18:00;;;;;;;10.07;9.27;;;22.20;99.90;;;;;;4971038;28;20447;-71
2022/07/21 03:20:29;;;;;;;11.00;10.17;;;22.20;99.90;;;;;;4973142;28;20464;-71
2022/07/21 03:22:55;;;;;;;11.33;10.43;;;22.20;99.90;;;;;;5009022;28;20258;-71
2022/07/21 03:25:21;;;;;;;10.60;9.80;;;22.20;99.90;;;;;;5009090;28;20940;-71
2022/07/21 03:27:48;;;;;;;9.43;8.63;;;22.20;99.90;;;;;;4993505;28;20422;-71
2022/07/21 03:30:15;;;;;;;9.70;9.00;;;22.20;99.90;;;;;;5009319;28;20443;-71
2022/07/21 03:32:40;;;;;;;9.27;8.47;;;22.20;99.90;;;;;;5009878;28;20413;-71
2022/07/21 03:35:10;;;;;;;9.10;8.40;;;22.20;99.90;;;;;;5008857;28;20981;-74
2022/07/21 03:37:54;;;;;;;9.07;8.37;;;22.20;99.90;;;;;;5008078;28;20521;-71
2022/07/21 03:40:23;;;;;;;8.60;8.00;;;22.20;99.90;;;;;;5067466;28;20512;-71
2022/07/21 03:42:54;;;;;;;7.87;7.27;;;22.10;99.90;;;;;;5071332;28;20772;-71
2022/07/21 03:45:21;;;;;;;8.87;8.17;;;22.20;99.90;;;;;;5071158;28;20789;-71
2022/07/21 03:47:47;;;;;;;10.00;9.20;;;22.20;99.90;;;;;;5071886;28;20454;-71
2022/07/21 03:50:16;;;;;;;10.50;9.70;;;22.20;99.90;;;;;;5071659;28;20436;-71
2022/07/21 03:52:42;;;;;;;10.03;9.20;;;22.20;99.90;;;;;;5070779;28;20234;-71
2022/07/21 03:55:08;;;;;;;11.13;10.23;;;22.10;99.90;;;;;;5071480;28;20856;-71
2022/07/21 03:57:50;;;;;;;9.80;9.10;;;22.10;99.90;;;;;;5071001;28;20169;-71
2022/07/21 04:00:23;;;;;;;8.83;8.23;;;22.10;99.90;;;;;;5051056;28;20405;-71
2022/07/21 04:02:49;;;;;;;8.23;7.53;;;22.10;99.90;;;;;;5057064;28;20588;-72
2022/07/21 04:05:15;;;;;;;7.90;7.40;;;22.00;99.90;;;;;;5070171;28;20514;-71
2022/07/21 04:07:44;;;;;;;8.53;7.93;;;21.90;99.90;;;;;;5070686;28;20290;-71
2022/07/21 04:10:12;;;;;;;8.70;8.10;;;21.90;99.90;;;;;;5071670;28;20456;-71
2022/07/21 04:12:38;;;;;;;8.30;7.70;;;21.90;99.90;;;;;;5069688;28;20427;-71
2022/07/21 04:15:08;;;;;;;9.30;8.70;;;21.90;99.90;;;;;;5071676;28;20976;-72
2022/07/21 04:17:34;;;;;;;9.00;8.30;;;21.90;99.90;;;;;;5070876;28;20214;-71
2022/07/21 04:20:00;;;;;;;8.30;7.70;;;21.90;99.90;;;;;;5071213;28;20497;-71
2022/07/21 04:22:26;;;;;;;8.67;7.97;;;22.00;99.90;;;;;;5050817;28;20503;-71
2022/07/21 04:24:52;;;;;;;8.47;7.87;;;22.00;99.90;;;;;;5049765;28;20826;-71
2022/07/21 04:27:18;;;;;;;8.87;8.17;;;22.00;99.90;;;;;;5050654;28;20180;-71
2022/07/21 04:29:43;;;;;;;8.70;8.10;;;22.10;99.90;;;;;;5051062;28;20178;-72
2022/07/21 04:32:09;;;;;;;8.93;8.23;;;22.10;99.90;;;;;;5054467;28;20323;-71
2022/07/21 04:34:35;;;;;;;8.50;7.80;;;22.10;99.90;;;;;;5051927;28;20217;-70
2022/07/21 04:37:00;;;;;;;9.77;9.07;;;22.20;99.90;;;;;;5053264;28;20209;-70
2022/07/21 04:39:27;;;;;;;9.03;8.33;;;22.30;99.90;;;;;;5051834;28;20239;-70
2022/07/21 04:41:53;;;;;;;9.57;8.87;;;22.40;99.90;;;;;;5054478;28;20177;-70
2022/07/21 04:44:19;;;;;;;9.50;8.67;;;22.60;99.90;;;;;;5054509;28;20427;-70
2022/07/21 04:46:44;;;;;;;9.43;8.70;;;22.80;99.90;;;;;;5051384;28;20194;-68
2022/07/21 04:49:10;;;;;;;10.10;9.33;;;22.80;99.90;;;;;;5037017;28;20201;-68
2022/07/21 04:51:36;;;;;;;9.40;8.70;;;22.80;99.90;;;;;;5054274;28;20204;-69
2022/07/21 04:54:01;;;;;;;9.17;8.40;;;23.00;99.90;;;;;;5053619;28;20208;-69
2022/07/21 04:56:27;;;;;;;9.90;9.10;;;23.10;99.90;;;;;;5054224;28;20196;-69
2022/07/21 04:58:53;;;;;;;10.00;9.10;;;23.20;99.90;;;;;;5054917;28;20169;-69
2022/07/21 05:01:19;;;;;;;10.03;9.33;;;23.30;99.90;;;;;;5054057;28;20235;-69
2022/07/21 05:03:45;;;;;;;10.63;9.53;;;23.50;99.90;;;;;;5035047;28;20647;-68
2022/07/21 05:06:11;;;;;;;10.90;9.90;;;23.60;99.90;;;;;;5053438;28;20185;-68
2022/07/21 05:08:37;;;;;;;11.00;10.10;;;23.70;99.90;;;;;;5028281;28;20577;-69
2022/07/21 05:11:03;;;;;;;10.57;9.77;;;23.80;99.90;;;;;;5053045;28;20527;-69
2022/07/21 05:13:29;;;;;;;11.07;10.27;;;23.90;99.90;;;;;;5031046;28;20222;-69
2022/07/21 05:15:54;;;;;;;11.20;10.40;;;23.90;99.90;;;;;;5049904;28;20236;-69
2022/07/21 05:18:20;;;;;;;12.77;11.67;;;24.00;99.90;;;;;;5051792;28;20210;-69
2022/07/21 05:20:45;;;;;;;13.13;11.73;;;24.10;99.90;;;;;;5056572;28;20600;-69
2022/07/21 05:23:11;;;;;;;13.07;11.97;;;24.20;99.90;;;;;;5043628;28;20189;-69
2022/07/21 05:25:37;;;;;;;12.63;11.63;;;24.20;99.90;;;;;;5062813;28;20719;-69
2022/07/21 05:28:05;;;;;;;12.23;10.77;;;24.30;99.90;;;;;;5059990;28;20173;-69
2022/07/21 05:30:31;;;;;;;12.83;11.77;;;24.30;99.90;;;;;;5038416;28;20225;-69
2022/07/21 05:32:56;;;;;;;11.03;10.10;;;24.10;99.90;;;;;;5071570;28;20415;-69
2022/07/21 05:35:22;;;;;;;14.13;12.97;;;24.10;99.90;;;;;;5068097;28;20657;-69
2022/07/21 05:37:48;;;;;;;14.37;13.00;;;24.10;99.90;;;;;;5052309;28;20224;-69
2022/07/21 05:40:14;;;;;;;12.83;11.87;;;23.90;99.90;;;;;;5054138;28;20209;-70
2022/07/21 05:42:40;;;;;;;16.47;15.07;;;23.90;99.90;;;;;;5040708;28;20178;-70
2022/07/21 05:45:07;;;;;;;16.17;14.87;;;23.90;99.90;;;;;;5073920;28;20744;-71
2022/07/21 05:47:32;;;;;;;16.03;14.73;;;23.80;99.90;;;;;;5064716;28;20750;-70
2022/07/21 05:49:58;;;;;;;15.23;13.93;;;23.90;99.90;;;;;;5050499;28;20447;-71
2022/07/21 05:52:25;;;;;;;16.93;15.53;;;23.80;99.90;;;;;;5037684;28;20191;-71
2022/07/21 05:54:51;;;;;;;17.43;16.00;;;23.80;99.90;;;;;;5045679;28;20473;-70
2022/07/21 05:57:18;;;;;;;15.50;14.30;;;23.80;99.90;;;;;;5043000;28;20530;-70
2022/07/21 05:59:45;;;;;;;16.40;15.10;;;23.50;99.90;;;;;;5040228;28;20827;-70
2022/07/21 06:02:10;;;;;;;15.00;13.70;;;23.30;99.90;;;;;;5056721;28;20488;-69
2022/07/21 06:04:36;;;;;;;16.00;14.53;;;23.20;99.90;;;;;;5039269;28;20926;-70
2022/07/21 06:07:02;;;;;;;13.87;12.73;;;23.00;99.90;;;;;;5057611;28;20637;-70
2022/07/21 06:09:28;;;;;;;16.40;15.00;;;22.90;99.90;;;;;;5052924;28;20264;-70
2022/07/21 06:11:54;;;;;;;16.00;14.57;;;22.90;99.90;;;;;;5050789;28;20443;-70
2022/07/21 06:14:20;;;;;;;18.13;16.57;;;22.80;99.90;;;;;;5049428;28;20223;-69
2022/07/21 06:16:46;;;;;;;15.77;14.47;;;22.80;99.90;;;;;;5038635;28;20180;-69
2022/07/21 06:19:11;;;;;;;16.83;15.33;;;22.90;99.90;;;;;;5049929;28;20800;-69
2022/07/21 06:21:37;;;;;;;16.57;15.00;;;22.80;99.90;;;;;;5048887;28;20636;-68
2022/07/21 06:24:03;;;;;;;34.43;28.17;;;22.70;99.90;;;;;;5051145;28;20200;-69
2022/07/21 06:26:28;;;;;;;38.83;28.73;;;22.70;99.90;;;;;;5049757;28;20177;-69
2022/07/21 06:28:54;;;;;;;15.37;14.00;;;22.70;99.90;;;;;;5051477;28;20252;-69
2022/07/21 06:31:20;;;;;;;17.63;16.03;;;22.70;99.90;;;;;;5052061;28;20185;-69
2022/07/21 06:33:46;;;;;;;15.23;13.93;;;22.70;99.90;;;;;;5045930;28;20232;-69
2022/07/21 06:36:12;;;;;;;15.27;13.83;;;22.70;99.90;;;;;;4999268;28;20244;-69
2022/07/21 06:38:37;;;;;;;15.47;14.17;;;22.60;99.90;;;;;;5014909;28;20209;-69
2022/07/21 06:41:03;;;;;;;14.90;13.63;;;22.50;99.90;;;;;;5039903;28;20166;-69
2022/07/21 06:43:29;;;;;;;14.53;13.50;;;22.30;99.90;;;;;;5050561;28;20196;-69
2022/07/21 06:45:56;;;;;;;18.47;16.90;;;22.30;99.90;;;;;;5049025;28;20917;-70
2022/07/21 06:48:22;;;;;;;17.13;15.73;;;22.30;99.90;;;;;;5050059;28;20182;-71
2022/07/21 06:50:48;;;;;;;14.90;13.63;;;22.20;99.90;;;;;;5052902;28;20428;-68
2022/07/21 06:53:14;;;;;;;14.37;13.20;;;22.20;99.90;;;;;;5050994;28;20408;-69
2022/07/21 06:55:41;;;;;;;14.30;13.17;;;22.20;99.90;;;;;;5048375;28;20209;-69
2022/07/21 06:58:18;;;;;;;14.03;12.90;;;22.20;99.90;;;;;;5051372;28;20186;-69
2022/07/21 07:00:45;;;;;;;14.67;13.47;;;22.20;99.90;;;;;;5047702;28;20439;-69
2022/07/21 07:03:11;;;;;;;17.50;15.80;;;22.20;99.90;;;;;;5050210;28;20949;-69
2022/07/21 07:05:37;;;;;;;16.00;14.80;;;22.20;99.90;;;;;;5049785;28;20936;-69
2022/07/21 07:08:04;;;;;;;15.47;14.17;;;22.20;99.90;;;;;;5049983;28;20523;-69
2022/07/21 07:10:30;;;;;;;14.70;13.50;;;22.20;99.90;;;;;;5051994;28;20879;-69
2022/07/21 07:12:55;;;;;;;16.30;14.93;;;22.30;99.90;;;;;;5052463;28;20448;-69
2022/07/21 07:15:22;;;;;;;16.13;14.83;;;22.30;99.90;;;;;;5052472;28;20208;-69
2022/07/21 07:17:49;;;;;;;15.07;13.77;;;22.40;99.90;;;;;;5051822;28;20624;-69
2022/07/21 07:20:14;;;;;;;14.80;13.60;;;22.50;99.90;;;;;;5052247;28;20450;-69
2022/07/21 07:22:40;;;;;;;15.87;14.47;;;22.50;99.90;;;;;;5051535;28;20420;-69
2022/07/21 07:25:07;;;;;;;15.70;14.40;;;22.50;99.90;;;;;;5034475;28;20192;-69
2022/07/21 07:27:33;;;;;;;16.13;14.87;;;22.50;99.90;;;;;;5051839;28;20292;-69
2022/07/21 07:29:59;;;;;;;17.10;15.60;;;22.50;99.90;;;;;;5051105;28;20434;-69
2022/07/21 07:32:24;;;;;;;16.70;15.20;;;22.30;99.90;;;;;;5052117;28;20416;-70
2022/07/21 07:34:50;;;;;;;13.13;11.97;;;22.40;99.90;;;;;;5052329;28;20311;-69
2022/07/21 07:37:16;;;;;;;13.53;12.43;;;22.40;99.90;;;;;;5052274;28;20224;-69
2022/07/21 07:39:42;;;;;;;13.10;12.10;;;22.50;99.90;;;;;;5029197;28;20190;-71
2022/07/21 07:42:08;;;;;;;12.80;11.90;;;22.50;99.90;;;;;;5026144;28;20182;-70
2022/07/21 07:44:34;;;;;;;14.80;13.60;;;22.40;99.90;;;;;;5051314;28;20177;-69
2022/07/21 07:47:02;;;;;;;15.10;13.80;;;22.50;99.90;;;;;;5034238;28;20533;-70
2022/07/21 07:49:31;;;;;;;15.30;14.00;;;22.50;99.90;;;;;;5027438;28;20936;-70
2022/07/21 07:51:57;;;;;;;15.17;13.90;;;22.40;99.90;;;;;;5032331;28;20413;-70
2022/07/21 07:54:23;;;;;;;13.70;12.60;;;22.50;99.90;;;;;;5050121;28;20521;-70
2022/07/21 07:56:49;;;;;;;14.13;12.83;;;22.50;99.90;;;;;;5050952;28;20416;-70
2022/07/21 07:59:15;;;;;;;12.57;11.57;;;22.50;99.90;;;;;;5050082;28;20438;-70
2022/07/21 08:01:41;;;;;;;13.33;12.30;;;22.50;99.90;;;;;;5019221;28;20459;-70
2022/07/21 08:04:06;;;;;;;16.20;14.73;;;22.40;99.90;;;;;;5055906;28;20169;-69
2022/07/21 08:06:32;;;;;;;15.90;14.50;;;22.40;99.90;;;;;;5055373;28;20519;-69
2022/07/21 08:08:58;;;;;;;15.70;14.33;;;22.50;99.90;;;;;;5055927;28;20252;-70
2022/07/21 08:11:24;;;;;;;14.97;13.87;;;22.60;99.90;;;;;;5055873;28;20655;-70
2022/07/21 08:13:50;;;;;;;14.40;13.10;;;22.60;99.90;;;;;;5055240;28;20415;-70
2022/07/21 08:16:16;;;;;;;13.63;12.53;;;22.60;99.90;;;;;;5055382;28;20807;-70
2022/07/21 08:18:42;;;;;;;12.97;12.00;;;22.60;99.90;;;;;;5035037;28;20196;-70
2022/07/21 08:21:08;;;;;;;13.27;12.17;;;22.70;99.90;;;;;;5055206;28;20221;-70
2022/07/21 08:23:34;;;;;;;11.60;10.80;;;22.70;99.90;;;;;;5054812;28;20420;-69
2022/07/21 08:26:00;;;;;;;10.53;9.73;;;22.70;99.90;;;;;;5055825;28;20474;-70
2022/07/21 08:28:27;;;;;;;15.70;14.30;;;22.70;99.90;;;;;;5021435;28;20267;-70
2022/07/21 08:30:53;;;;;;;11.63;10.70;;;22.80;99.90;;;;;;5037537;28;20884;-69
2022/07/21 08:33:18;;;;;;;12.37;11.47;;;22.90;99.90;;;;;;5054118;28;20357;-70
2022/07/21 08:35:44;;;;;;;26.30;19.97;;;23.10;99.90;;;;;;5054506;28;20454;-70
2022/07/21 08:38:13;;;;;;;10.90;10.10;;;23.20;99.90;;;;;;5055311;28;20174;-70
2022/07/21 08:40:43;;;;;;;12.53;11.53;;;23.30;99.90;;;;;;5054730;28;20243;-70
2022/07/21 08:43:09;;;;;;;11.30;10.57;;;23.30;99.90;;;;;;5055326;28;20749;-70
2022/07/21 08:45:36;;;;;;;11.80;10.80;;;23.40;99.90;;;;;;5036811;28;20449;-70
2022/07/21 08:48:03;;;;;;;10.87;10.00;;;23.60;99.90;;;;;;5054836;28;20408;-70
2022/07/21 08:50:32;;;;;;;10.90;10.00;;;23.70;99.90;;;;;;5054749;28;20412;-70
2022/07/21 08:52:58;;;;;;;10.83;10.13;;;23.90;99.90;;;;;;5037165;28;20401;-70
2022/07/21 08:55:24;;;;;;;11.03;10.33;;;24.10;99.90;;;;;;5055085;28;20455;-70
2022/07/21 08:57:50;;;;;;;10.87;10.07;;;24.30;99.90;;;;;;5036536;28;20720;-70
2022/07/21 09:00:16;;;;;;;10.60;9.90;;;24.40;99.90;;;;;;5003213;28;20439;-70
2022/07/21 09:02:45;;;;;;;9.90;9.10;;;24.50;99.90;;;;;;5002863;28;20511;-68
2022/07/21 09:05:11;;;;;;;9.17;8.57;;;24.40;99.90;;;;;;5052021;28;20477;-70
2022/07/21 09:07:47;;;;;;;9.67;8.83;;;24.50;99.60;;;;;;5051016;28;20428;-69
2022/07/21 09:10:13;;;;;;;9.50;8.50;;;24.40;99.60;;;;;;5034746;28;20181;-69
2022/07/21 09:12:53;;;;;;;10.20;9.30;;;24.30;99.90;;;;;;5054097;28;20392;-69
2022/07/21 09:15:21;;;;;;;8.93;8.33;;;24.40;99.90;;;;;;5054247;28;20768;-70
2022/07/21 09:18:02;;;;;;;9.37;8.73;;;24.40;99.90;;;;;;5054026;28;20400;-70
2022/07/21 09:20:28;;;;;;;9.30;8.57;;;24.50;99.80;;;;;;5054636;28;20420;-70
2022/07/21 09:23:12;;;;;;;10.07;9.27;;;24.60;99.70;;;;;;5036001;28;20427;-70
2022/07/21 09:25:42;;;;;;;9.90;9.07;;;24.70;99.80;;;;;;5053843;28;20158;-70
2022/07/21 09:28:16;;;;;;;10.30;9.50;;;24.70;98.80;;;;;;5054143;28;20465;-70
2022/07/21 09:30:53;;;;;;;10.07;9.37;;;24.80;97.90;;;;;;5036288;28;20454;-71
2022/07/21 09:33:23;;;;;;;10.30;9.70;;;24.80;98.20;;;;;;5053062;28;20428;-70
2022/07/21 09:35:56;;;;;;;9.40;8.73;;;24.90;99.00;;;;;;5053299;28;20465;-70
2022/07/21 09:38:23;;;;;;;10.10;9.20;;;24.90;98.50;;;;;;5054240;28;20416;-69
2022/07/21 09:40:49;;;;;;;10.17;9.33;;;24.90;97.90;;;;;;5035767;28;20404;-70
2022/07/21 09:43:31;;;;;;;9.87;8.87;;;24.90;98.20;;;;;;5054109;28;20404;-69
2022/07/21 09:46:01;;;;;;;9.70;9.10;;;24.90;98.00;;;;;;5035699;28;20165;-69
2022/07/21 09:48:47;;;;;;;9.43;8.80;;;24.80;97.00;;;;;;5002363;28;20501;-69
2022/07/21 09:51:24;;;;;;;9.60;8.90;;;24.70;96.60;;;;;;5054003;28;20815;-69
2022/07/21 09:54:01;;;;;;;8.80;8.20;;;24.60;96.90;;;;;;5053329;28;20494;-69
2022/07/21 09:56:32;;;;;;;9.07;8.47;;;24.70;97.90;;;;;;5053778;28;20463;-69
2022/07/21 09:58:59;;;;;;;9.83;9.27;;;24.60;98.10;;;;;;5053644;28;20466;-70
2022/07/21 10:01:27;;;;;;;9.27;8.57;;;24.60;98.60;;;;;;5035711;28;20408;-70
2022/07/21 10:03:53;;;;;;;8.70;8.20;;;24.50;98.70;;;;;;5052136;28;20430;-70
2022/07/21 10:06:24;;;;;;;8.73;7.87;;;24.50;98.80;;;;;;5053004;28;20424;-70
2022/07/21 10:08:51;;;;;;;8.40;7.70;;;24.50;98.40;;;;;;5052762;28;20377;-70
2022/07/21 10:11:17;;;;;;;8.90;8.30;;;24.40;98.00;;;;;;5035535;28;20423;-69
2022/07/21 10:13:43;;;;;;;8.57;7.97;;;24.40;97.90;;;;;;5052983;28;20908;-70
2022/07/21 10:16:12;;;;;;;9.20;8.50;;;24.50;98.30;;;;;;5053206;28;20440;-69
2022/07/21 10:19:11;;;;;;;9.73;9.07;;;24.50;98.70;;;;;;5033956;28;20803;-70
2022/07/21 10:21:41;;;;;;;11.33;10.53;;;24.50;98.80;;;;;;5043726;28;20480;-71
2022/07/21 10:24:10;;;;;;;10.23;9.40;;;24.50;98.50;;;;;;5052973;28;20388;-70
2022/07/21 10:26:37;;;;;;;11.87;10.93;;;24.50;99.00;;;;;;5052700;28;20408;-68
2022/07/21 10:29:02;;;;;;;11.60;10.73;;;24.40;99.40;;;;;;5035577;28;20400;-70
2022/07/21 10:31:28;;;;;;;11.50;10.70;;;24.40;99.80;;;;;;5052825;28;20778;-69
2022/07/21 10:34:00;;;;;;;11.10;10.27;;;24.40;99.20;;;;;;5051487;28;20268;-70
2022/07/21 10:36:28;;;;;;;12.03;11.13;;;24.30;99.50;;;;;;5035112;28;20287;-70
2022/07/21 10:39:06;;;;;;;12.10;11.30;;;24.30;99.50;;;;;;5052532;28;20450;-70
2022/07/21 10:41:43;;;;;;;12.90;11.83;;;24.30;99.60;;;;;;5053016;28;20412;-70
2022/07/21 10:44:27;;;;;;;14.07;12.97;;;24.30;99.50;;;;;;5053020;28;20399;-70
2022/07/21 10:47:09;;;;;;;12.60;11.63;;;24.20;99.90;;;;;;5052092;28;20440;-70
2022/07/21 10:49:41;;;;;;;12.83;11.63;;;24.30;99.90;;;;;;5053014;28;20444;-70
2022/07/21 10:52:35;;;;;;;12.97;11.87;;;24.30;99.90;;;;;;5052993;28;20408;-70
2022/07/21 10:55:13;;;;;;;12.20;11.00;;;24.30;99.70;;;;;;5051811;28;20455;-69
2022/07/21 10:57:43;;;;;;;12.37;11.30;;;24.30;99.90;;;;;;5052250;28;20776;-70
2022/07/21 11:00:33;;;;;;;12.83;11.83;;;24.40;99.90;;;;;;5035376;28;20470;-70
2022/07/21 11:03:01;;;;;;;12.87;11.90;;;24.30;99.70;;;;;;5050821;28;20424;-70
2022/07/21 11:05:29;;;;;;;13.27;12.27;;;24.30;99.80;;;;;;5033414;28;20775;-70
2022/07/21 11:08:15;;;;;;;12.60;11.50;;;24.10;99.20;;;;;;5052156;28;20479;-70
2022/07/21 11:10:45;;;;;;;12.17;11.17;;;24.10;99.60;;;;;;5034045;28;20408;-70
2022/07/21 11:13:12;;;;;;;11.90;11.00;;;24.00;99.90;;;;;;5034872;28;20900;-70
2022/07/21 11:16:01;;;;;;;12.23;11.40;;;24.00;99.90;;;;;;5052098;28;20448;-72
2022/07/21 11:18:30;;;;;;;12.70;11.60;;;23.90;99.90;;;;;;5034730;28;20488;-70
2022/07/21 11:21:11;;;;;;;12.20;11.00;;;23.90;99.90;;;;;;5051385;28;20455;-71
2022/07/21 11:23:57;;;;;;;11.47;10.67;;;23.90;99.90;;;;;;5052602;28;20412;-70
2022/07/21 11:26:26;;;;;;;12.43;11.53;;;23.80;99.90;;;;;;5036776;28;20439;-70
2022/07/21 11:29:06;;;;;;;11.50;10.60;;;23.80;99.90;;;;;;5051571;28;20412;-70
2022/07/21 11:31:32;;;;;;;11.30;10.50;;;23.90;99.90;;;;;;5034655;28;20407;-71
2022/07/21 11:33:57;;;;;;;11.37;10.27;;;23.80;99.90;;;;;;5035165;28;20392;-70
2022/07/21 11:36:31;;;;;;;11.43;10.30;;;23.90;99.90;;;;;;5038272;28;20663;-70
2022/07/21 11:39:09;;;;;;;11.20;10.23;;;23.90;99.90;;;;;;5055796;28;20613;-71
2022/07/21 11:41:37;;;;;;;11.70;10.80;;;23.90;99.80;;;;;;5056354;28;20509;-71
2022/07/21 11:44:04;;;;;;;12.30;11.30;;;23.80;99.80;;;;;;5055379;28;20404;-71
2022/07/21 11:46:49;;;;;;;12.07;11.17;;;23.80;99.90;;;;;;5056358;28;20898;-71
2022/07/21 11:49:15;;;;;;;12.03;10.90;;;23.70;99.90;;;;;;5021857;28;20922;-70
2022/07/21 11:51:58;;;;;;;11.17;10.37;;;23.70;99.90;;;;;;5055658;28;20505;-71
2022/07/21 11:54:36;;;;;;;11.00;10.20;;;23.60;99.90;;;;;;5055236;28;20427;-70
2022/07/21 11:57:05;;;;;;;10.77;10.03;;;23.60;99.90;;;;;;5053996;28;20424;-71
2022/07/21 11:59:32;;;;;;;11.57;10.67;;;23.60;99.90;;;;;;4988290;28;20489;-70
2022/07/21 12:02:08;;;;;;;11.23;10.33;;;23.50;99.90;;;;;;5055485;28;20740;-69
2022/07/21 12:04:39;;;;;;;10.57;9.67;;;23.40;99.90;;;;;;5055818;28;20407;-71
2022/07/21 12:07:15;;;;;;;11.00;10.20;;;23.40;99.90;;;;;;5055319;28;20397;-70
2022/07/21 12:09:43;;;;;;;11.73;10.77;;;23.40;99.90;;;;;;5038159;28;20452;-71
2022/07/21 12:12:09;;;;;;;12.17;11.27;;;23.40;99.90;;;;;;5055692;28;20408;-70
2022/07/21 12:14:47;;;;;;;12.13;11.23;;;23.30;99.90;;;;;;5037877;28;20452;-70
2022/07/21 12:17:15;;;;;;;11.60;10.70;;;23.30;99.90;;;;;;5055806;28;20434;-70
2022/07/21 12:19:42;;;;;;;12.53;11.43;;;23.20;99.90;;;;;;5055480;28;20416;-70
2022/07/21 12:22:08;;;;;;;13.33;11.80;;;23.20;99.90;;;;;;5055339;28;20455;-70
2022/07/21 12:24:58;;;;;;;13.03;11.90;;;23.10;99.90;;;;;;5054628;28;20431;-70
2022/07/21 12:27:24;;;;;;;12.80;11.80;;;23.00;99.90;;;;;;5055524;28;20463;-69
2022/07/21 12:29:50;;;;;;;13.07;12.07;;;22.90;99.90;;;;;;5055058;28;20396;-70
2022/07/21 12:32:38;;;;;;;12.20;11.20;;;22.90;99.90;;;;;;5055544;28;20416;-70
2022/07/21 12:35:05;;;;;;;13.70;12.40;;;22.90;99.90;;;;;;5054793;28;20440;-70
2022/07/21 12:37:52;;;;;;;12.63;11.43;;;22.90;99.90;;;;;;5055764;28;20411;-70
2022/07/21 12:40:20;;;;;;;12.33;11.27;;;22.90;99.90;;;;;;5055373;28;20756;-70
2022/07/21 12:42:46;;;;;;;10.90;10.07;;;22.80;99.90;;;;;;5053683;28;20515;-70